sensor_id;sensor_type;location;lat;lon;timestamp;temperature;humidity
69598;SHT31;70000;51.176;-115.568;2023-12-14T00:00:33;-4.45;67.76
69598;SHT31;70000;51.176;-115.568;2023-12-14T00:03:02;-4.45;67.83
69598;SHT31;70000;51.176;-115.568;2023-12-14T00:05:31;-4.45;68.04
69598;SHT31;70000;51.176;-115.568;2023-12-14T00:08:00;-4.45;67.93
69598;SHT31;70000;51.176;-115.568;2023-12-14T00:10:29;-4.46;67.85
69598;SHT31;70000;51.176;-115.568;2023-12-14T00:13:01;-4.44;67.93
69598;SHT31;70000;51.176;-115.568;2023-12-14T00:15:32;-4.45;67.89
69598;SHT31;70000;51.176;-115.568;2023-12-14T00:18:01;-4.45;67.73
69598;SHT31;70000;51.176;-115.568;2023-12-14T00:20:30;-4.45;67.60
69598;SHT31;70000;51.176;-115.568;2023-12-14T00:22:59;-4.45;67.46
69598;SHT31;70000;51.176;-115.568;2023-12-14T00:25:28;-4.40;67.22
69598;SHT31;70000;51.176;-115.568;2023-12-14T00:27:57;-4.35;67.18
69598;SHT31;70000;51.176;-115.568;2023-12-14T00:30:26;-4.36;67.27
69598;SHT31;70000;51.176;-115.568;2023-12-14T00:32:55;-4.39;67.21
69598;SHT31;70000;51.176;-115.568;2023-12-14T00:35:24;-4.41;67.46
69598;SHT31;70000;51.176;-115.568;2023-12-14T00:37:53;-4.41;67.57
69598;SHT31;70000;51.176;-115.568;2023-12-14T00:40:23;-4.44;67.38
69598;SHT31;70000;51.176;-115.568;2023-12-14T00:42:52;-4.43;67.32
69598;SHT31;70000;51.176;-115.568;2023-12-14T00:45:22;-4.43;67.27
69598;SHT31;70000;51.176;-115.568;2023-12-14T00:47:52;-4.44;67.33
69598;SHT31;70000;51.176;-115.568;2023-12-14T00:50:22;-4.47;67.32
69598;SHT31;70000;51.176;-115.568;2023-12-14T00:56:01;-4.52;67.38
69598;SHT31;70000;51.176;-115.568;2023-12-14T00:58:31;-4.53;67.30
69598;SHT31;70000;51.176;-115.568;2023-12-14T01:01:00;-4.52;67.25
69598;SHT31;70000;51.176;-115.568;2023-12-14T01:03:29;-4.51;67.22
69598;SHT31;70000;51.176;-115.568;2023-12-14T01:05:58;-4.49;67.27
69598;SHT31;70000;51.176;-115.568;2023-12-14T01:08:27;-4.46;67.02
69598;SHT31;70000;51.176;-115.568;2023-12-14T01:10:57;-4.41;66.83
69598;SHT31;70000;51.176;-115.568;2023-12-14T01:13:27;-4.39;66.87
69598;SHT31;70000;51.176;-115.568;2023-12-14T01:18:50;-4.37;66.83
69598;SHT31;70000;51.176;-115.568;2023-12-14T01:25:02;-4.31;66.64
69598;SHT31;70000;51.176;-115.568;2023-12-14T01:27:35;-4.33;66.59
69598;SHT31;70000;51.176;-115.568;2023-12-14T01:30:04;-4.36;66.61
69598;SHT31;70000;51.176;-115.568;2023-12-14T01:32:35;-4.35;66.81
69598;SHT31;70000;51.176;-115.568;2023-12-14T01:35:05;-4.40;66.74
69598;SHT31;70000;51.176;-115.568;2023-12-14T01:37:34;-4.47;66.87
69598;SHT31;70000;51.176;-115.568;2023-12-14T01:40:04;-4.52;66.93
69598;SHT31;70000;51.176;-115.568;2023-12-14T01:42:34;-4.54;66.87
69598;SHT31;70000;51.176;-115.568;2023-12-14T01:45:04;-4.55;66.89
69598;SHT31;70000;51.176;-115.568;2023-12-14T01:47:34;-4.55;67.01
69598;SHT31;70000;51.176;-115.568;2023-12-14T01:50:03;-4.60;66.85
69598;SHT31;70000;51.176;-115.568;2023-12-14T01:52:33;-4.61;66.91
69598;SHT31;70000;51.176;-115.568;2023-12-14T01:55:03;-4.63;66.97
69598;SHT31;70000;51.176;-115.568;2023-12-14T01:57:32;-4.63;67.19
69598;SHT31;70000;51.176;-115.568;2023-12-14T02:00:01;-4.64;67.17
69598;SHT31;70000;51.176;-115.568;2023-12-14T02:02:30;-4.65;67.12
69598;SHT31;70000;51.176;-115.568;2023-12-14T02:05:00;-4.69;67.01
69598;SHT31;70000;51.176;-115.568;2023-12-14T02:07:29;-4.69;67.05
69598;SHT31;70000;51.176;-115.568;2023-12-14T02:09:58;-4.68;67.03
69598;SHT31;70000;51.176;-115.568;2023-12-14T02:12:27;-4.71;67.01
69598;SHT31;70000;51.176;-115.568;2023-12-14T02:14:56;-4.72;67.18
69598;SHT31;70000;51.176;-115.568;2023-12-14T02:17:25;-4.71;67.22
69598;SHT31;70000;51.176;-115.568;2023-12-14T02:19:54;-4.74;67.12
69598;SHT31;70000;51.176;-115.568;2023-12-14T02:22:33;-4.72;67.26
69598;SHT31;70000;51.176;-115.568;2023-12-14T02:25:19;-4.73;67.19
69598;SHT31;70000;51.176;-115.568;2023-12-14T02:27:50;-4.74;67.14
69598;SHT31;70000;51.176;-115.568;2023-12-14T02:30:20;-4.76;67.21
69598;SHT31;70000;51.176;-115.568;2023-12-14T02:32:49;-4.80;67.30
69598;SHT31;70000;51.176;-115.568;2023-12-14T02:35:18;-4.82;67.31
69598;SHT31;70000;51.176;-115.568;2023-12-14T02:37:47;-4.83;67.39
69598;SHT31;70000;51.176;-115.568;2023-12-14T02:40:17;-4.85;67.40
69598;SHT31;70000;51.176;-115.568;2023-12-14T02:42:46;-4.86;67.63
69598;SHT31;70000;51.176;-115.568;2023-12-14T02:45:15;-4.87;67.67
69598;SHT31;70000;51.176;-115.568;2023-12-14T02:47:45;-4.90;67.78
69598;SHT31;70000;51.176;-115.568;2023-12-14T02:50:16;-4.91;67.52
69598;SHT31;70000;51.176;-115.568;2023-12-14T02:52:45;-4.91;67.49
69598;SHT31;70000;51.176;-115.568;2023-12-14T02:55:14;-4.93;67.68
69598;SHT31;70000;51.176;-115.568;2023-12-14T02:57:43;-4.97;67.85
69598;SHT31;70000;51.176;-115.568;2023-12-14T03:00:13;-4.98;67.80
69598;SHT31;70000;51.176;-115.568;2023-12-14T03:02:42;-4.97;67.80
69598;SHT31;70000;51.176;-115.568;2023-12-14T03:05:11;-4.95;67.98
69598;SHT31;70000;51.176;-115.568;2023-12-14T03:07:41;-4.93;67.83
69598;SHT31;70000;51.176;-115.568;2023-12-14T03:10:10;-4.92;67.96
69598;SHT31;70000;51.176;-115.568;2023-12-14T03:12:41;-4.93;67.90
69598;SHT31;70000;51.176;-115.568;2023-12-14T03:15:10;-4.97;67.80
69598;SHT31;70000;51.176;-115.568;2023-12-14T03:17:39;-4.98;67.69
69598;SHT31;70000;51.176;-115.568;2023-12-14T03:20:08;-4.97;67.68
69598;SHT31;70000;51.176;-115.568;2023-12-14T03:22:38;-4.94;67.63
69598;SHT31;70000;51.176;-115.568;2023-12-14T03:25:09;-4.94;67.60
69598;SHT31;70000;51.176;-115.568;2023-12-14T03:27:38;-4.94;67.49
69598;SHT31;70000;51.176;-115.568;2023-12-14T03:33:18;-4.97;67.67
69598;SHT31;70000;51.176;-115.568;2023-12-14T03:35:48;-4.98;67.73
69598;SHT31;70000;51.176;-115.568;2023-12-14T03:38:17;-5.01;67.61
69598;SHT31;70000;51.176;-115.568;2023-12-14T03:43:18;-5.03;67.77
69598;SHT31;70000;51.176;-115.568;2023-12-14T03:45:48;-5.02;68.02
69598;SHT31;70000;51.176;-115.568;2023-12-14T03:48:17;-5.00;68.34
69598;SHT31;70000;51.176;-115.568;2023-12-14T03:50:46;-4.99;68.37
69598;SHT31;70000;51.176;-115.568;2023-12-14T03:53:15;-4.95;68.43
69598;SHT31;70000;51.176;-115.568;2023-12-14T03:55:45;-4.95;68.20
69598;SHT31;70000;51.176;-115.568;2023-12-14T03:58:14;-4.95;68.51
69598;SHT31;70000;51.176;-115.568;2023-12-14T04:00:43;-4.94;68.18
69598;SHT31;70000;51.176;-115.568;2023-12-14T04:03:12;-4.95;68.34
69598;SHT31;70000;51.176;-115.568;2023-12-14T04:05:42;-4.95;68.35
69598;SHT31;70000;51.176;-115.568;2023-12-14T04:08:51;-4.94;68.43
69598;SHT31;70000;51.176;-115.568;2023-12-14T04:11:19;-4.93;68.26
69598;SHT31;70000;51.176;-115.568;2023-12-14T04:13:47;-4.93;68.35
69598;SHT31;70000;51.176;-115.568;2023-12-14T04:16:19;-4.92;68.19
69598;SHT31;70000;51.176;-115.568;2023-12-14T04:18:51;-4.91;68.08
69598;SHT31;70000;51.176;-115.568;2023-12-14T04:21:20;-4.91;68.07
69598;SHT31;70000;51.176;-115.568;2023-12-14T04:23:49;-4.91;68.11
69598;SHT31;70000;51.176;-115.568;2023-12-14T04:26:17;-4.91;68.14
69598;SHT31;70000;51.176;-115.568;2023-12-14T04:28:45;-4.91;68.17
69598;SHT31;70000;51.176;-115.568;2023-12-14T04:31:14;-4.90;68.04
69598;SHT31;70000;51.176;-115.568;2023-12-14T04:33:43;-4.92;67.77
69598;SHT31;70000;51.176;-115.568;2023-12-14T04:36:11;-4.94;67.87
69598;SHT31;70000;51.176;-115.568;2023-12-14T04:38:39;-4.94;67.94
69598;SHT31;70000;51.176;-115.568;2023-12-14T04:41:08;-4.91;67.80
69598;SHT31;70000;51.176;-115.568;2023-12-14T04:43:36;-4.89;67.72
69598;SHT31;70000;51.176;-115.568;2023-12-14T04:46:04;-4.87;67.85
69598;SHT31;70000;51.176;-115.568;2023-12-14T04:48:33;-4.85;67.81
69598;SHT31;70000;51.176;-115.568;2023-12-14T04:51:02;-4.82;67.41
69598;SHT31;70000;51.176;-115.568;2023-12-14T04:53:31;-4.83;67.36
69598;SHT31;70000;51.176;-115.568;2023-12-14T04:55:59;-4.83;67.48
69598;SHT31;70000;51.176;-115.568;2023-12-14T04:58:28;-4.86;67.52
69598;SHT31;70000;51.176;-115.568;2023-12-14T05:00:56;-4.86;67.58
69598;SHT31;70000;51.176;-115.568;2023-12-14T05:03:25;-4.86;67.38
69598;SHT31;70000;51.176;-115.568;2023-12-14T05:05:53;-4.86;67.48
69598;SHT31;70000;51.176;-115.568;2023-12-14T05:08:21;-4.89;67.59
69598;SHT31;70000;51.176;-115.568;2023-12-14T05:10:51;-4.90;67.74
69598;SHT31;70000;51.176;-115.568;2023-12-14T05:13:19;-4.90;67.65
69598;SHT31;70000;51.176;-115.568;2023-12-14T05:15:47;-4.87;67.76
69598;SHT31;70000;51.176;-115.568;2023-12-14T05:18:16;-4.85;67.57
69598;SHT31;70000;51.176;-115.568;2023-12-14T05:24:13;-4.92;67.72
69598;SHT31;70000;51.176;-115.568;2023-12-14T05:26:42;-4.98;67.75
69598;SHT31;70000;51.176;-115.568;2023-12-14T05:29:11;-5.03;67.86
69598;SHT31;70000;51.176;-115.568;2023-12-14T05:31:39;-5.05;68.10
69598;SHT31;70000;51.176;-115.568;2023-12-14T05:34:10;-5.07;68.05
69598;SHT31;70000;51.176;-115.568;2023-12-14T05:36:38;-5.11;68.20
69598;SHT31;70000;51.176;-115.568;2023-12-14T05:39:07;-5.11;68.34
69598;SHT31;70000;51.176;-115.568;2023-12-14T05:41:39;-5.13;68.27
69598;SHT31;70000;51.176;-115.568;2023-12-14T05:44:09;-5.14;68.33
69598;SHT31;70000;51.176;-115.568;2023-12-14T05:46:37;-5.14;68.48
69598;SHT31;70000;51.176;-115.568;2023-12-14T05:49:05;-5.10;68.50
69598;SHT31;70000;51.176;-115.568;2023-12-14T05:51:34;-5.04;68.50
69598;SHT31;70000;51.176;-115.568;2023-12-14T05:54:04;-5.01;68.33
69598;SHT31;70000;51.176;-115.568;2023-12-14T05:56:33;-4.99;68.20
69598;SHT31;70000;51.176;-115.568;2023-12-14T05:59:05;-4.96;68.18
69598;SHT31;70000;51.176;-115.568;2023-12-14T06:01:34;-4.97;68.01
69598;SHT31;70000;51.176;-115.568;2023-12-14T06:04:03;-4.98;67.93
69598;SHT31;70000;51.176;-115.568;2023-12-14T06:06:31;-5.00;67.99
69598;SHT31;70000;51.176;-115.568;2023-12-14T06:09:00;-4.96;68.02
69598;SHT31;70000;51.176;-115.568;2023-12-14T06:11:29;-4.93;67.80
69598;SHT31;70000;51.176;-115.568;2023-12-14T06:13:57;-4.90;67.99
69598;SHT31;70000;51.176;-115.568;2023-12-14T06:16:26;-4.88;67.86
69598;SHT31;70000;51.176;-115.568;2023-12-14T06:18:55;-4.86;67.87
69598;SHT31;70000;51.176;-115.568;2023-12-14T06:21:23;-4.84;67.73
69598;SHT31;70000;51.176;-115.568;2023-12-14T06:23:55;-4.86;67.79
69598;SHT31;70000;51.176;-115.568;2023-12-14T06:26:26;-4.88;67.84
69598;SHT31;70000;51.176;-115.568;2023-12-14T06:28:54;-4.87;67.87
69598;SHT31;70000;51.176;-115.568;2023-12-14T06:31:23;-4.92;67.82
69598;SHT31;70000;51.176;-115.568;2023-12-14T06:33:51;-4.92;67.86
69598;SHT31;70000;51.176;-115.568;2023-12-14T06:36:23;-4.92;67.94
69598;SHT31;70000;51.176;-115.568;2023-12-14T06:38:57;-4.95;67.80
69598;SHT31;70000;51.176;-115.568;2023-12-14T06:41:27;-4.97;67.94
69598;SHT31;70000;51.176;-115.568;2023-12-14T06:43:56;-4.97;68.05
69598;SHT31;70000;51.176;-115.568;2023-12-14T06:46:25;-4.96;68.02
69598;SHT31;70000;51.176;-115.568;2023-12-14T06:48:53;-4.98;68.00
69598;SHT31;70000;51.176;-115.568;2023-12-14T06:51:22;-4.98;68.07
69598;SHT31;70000;51.176;-115.568;2023-12-14T06:53:51;-4.99;68.12
69598;SHT31;70000;51.176;-115.568;2023-12-14T06:56:19;-5.00;68.11
69598;SHT31;70000;51.176;-115.568;2023-12-14T06:58:47;-5.00;68.22
69598;SHT31;70000;51.176;-115.568;2023-12-14T07:01:16;-4.99;68.16
69598;SHT31;70000;51.176;-115.568;2023-12-14T07:03:45;-5.00;68.10
69598;SHT31;70000;51.176;-115.568;2023-12-14T07:06:15;-5.02;68.20
69598;SHT31;70000;51.176;-115.568;2023-12-14T07:08:45;-5.03;68.33
69598;SHT31;70000;51.176;-115.568;2023-12-14T07:11:15;-5.03;68.35
69598;SHT31;70000;51.176;-115.568;2023-12-14T07:13:45;-5.05;68.26
69598;SHT31;70000;51.176;-115.568;2023-12-14T07:16:13;-5.04;68.41
69598;SHT31;70000;51.176;-115.568;2023-12-14T07:18:45;-5.05;68.34
69598;SHT31;70000;51.176;-115.568;2023-12-14T07:21:14;-5.06;68.44
69598;SHT31;70000;51.176;-115.568;2023-12-14T07:23:43;-5.07;68.48
69598;SHT31;70000;51.176;-115.568;2023-12-14T07:26:11;-5.07;68.58
69598;SHT31;70000;51.176;-115.568;2023-12-14T07:28:43;-5.07;68.43
69598;SHT31;70000;51.176;-115.568;2023-12-14T07:31:11;-5.04;68.48
69598;SHT31;70000;51.176;-115.568;2023-12-14T07:33:39;-5.05;68.48
69598;SHT31;70000;51.176;-115.568;2023-12-14T07:36:08;-5.09;68.39
69598;SHT31;70000;51.176;-115.568;2023-12-14T07:38:36;-5.10;68.53
69598;SHT31;70000;51.176;-115.568;2023-12-14T07:41:05;-5.12;68.53
69598;SHT31;70000;51.176;-115.568;2023-12-14T07:43:33;-5.13;68.57
69598;SHT31;70000;51.176;-115.568;2023-12-14T07:46:01;-5.13;68.45
69598;SHT31;70000;51.176;-115.568;2023-12-14T07:48:29;-5.14;68.47
69598;SHT31;70000;51.176;-115.568;2023-12-14T07:50:58;-5.14;68.57
69598;SHT31;70000;51.176;-115.568;2023-12-14T07:53:26;-5.15;68.62
69598;SHT31;70000;51.176;-115.568;2023-12-14T07:55:54;-5.18;68.76
69598;SHT31;70000;51.176;-115.568;2023-12-14T07:58:23;-5.18;68.76
69598;SHT31;70000;51.176;-115.568;2023-12-14T08:00:52;-5.18;68.87
69598;SHT31;70000;51.176;-115.568;2023-12-14T08:03:21;-5.16;68.91
69598;SHT31;70000;51.176;-115.568;2023-12-14T08:05:49;-5.14;68.80
69598;SHT31;70000;51.176;-115.568;2023-12-14T08:08:18;-5.12;68.82
69598;SHT31;70000;51.176;-115.568;2023-12-14T08:10:46;-5.11;68.72
69598;SHT31;70000;51.176;-115.568;2023-12-14T08:13:15;-5.09;68.79
69598;SHT31;70000;51.176;-115.568;2023-12-14T08:15:43;-5.07;68.77
69598;SHT31;70000;51.176;-115.568;2023-12-14T08:18:11;-5.08;68.67
69598;SHT31;70000;51.176;-115.568;2023-12-14T08:20:40;-5.07;68.73
69598;SHT31;70000;51.176;-115.568;2023-12-14T08:23:08;-5.06;68.81
69598;SHT31;70000;51.176;-115.568;2023-12-14T08:25:37;-5.04;68.85
69598;SHT31;70000;51.176;-115.568;2023-12-14T08:28:05;-5.04;68.70
69598;SHT31;70000;51.176;-115.568;2023-12-14T08:30:33;-5.05;68.49
69598;SHT31;70000;51.176;-115.568;2023-12-14T08:33:02;-5.05;68.40
69598;SHT31;70000;51.176;-115.568;2023-12-14T08:35:30;-5.03;68.45
69598;SHT31;70000;51.176;-115.568;2023-12-14T08:38:01;-5.02;68.49
69598;SHT31;70000;51.176;-115.568;2023-12-14T08:40:30;-5.01;68.47
69598;SHT31;70000;51.176;-115.568;2023-12-14T08:42:58;-5.01;68.41
69598;SHT31;70000;51.176;-115.568;2023-12-14T08:45:30;-4.98;68.38
69598;SHT31;70000;51.176;-115.568;2023-12-14T08:47:58;-4.98;68.27
69598;SHT31;70000;51.176;-115.568;2023-12-14T08:53:55;-4.99;68.44
69598;SHT31;70000;51.176;-115.568;2023-12-14T08:56:23;-4.99;68.31
69598;SHT31;70000;51.176;-115.568;2023-12-14T08:58:52;-5.00;68.27
69598;SHT31;70000;51.176;-115.568;2023-12-14T09:01:20;-5.00;68.45
69598;SHT31;70000;51.176;-115.568;2023-12-14T09:03:50;-5.01;68.44
69598;SHT31;70000;51.176;-115.568;2023-12-14T09:06:18;-5.03;68.44
69598;SHT31;70000;51.176;-115.568;2023-12-14T09:08:49;-5.04;68.46
69598;SHT31;70000;51.176;-115.568;2023-12-14T09:11:21;-5.06;68.50
69598;SHT31;70000;51.176;-115.568;2023-12-14T09:13:49;-5.05;68.57
69598;SHT31;70000;51.176;-115.568;2023-12-14T09:16:17;-5.04;68.70
69598;SHT31;70000;51.176;-115.568;2023-12-14T09:18:46;-5.05;68.71
69598;SHT31;70000;51.176;-115.568;2023-12-14T09:21:14;-5.06;68.70
69598;SHT31;70000;51.176;-115.568;2023-12-14T09:23:44;-5.06;68.63
69598;SHT31;70000;51.176;-115.568;2023-12-14T09:26:13;-5.05;68.69
69598;SHT31;70000;51.176;-115.568;2023-12-14T09:28:42;-5.05;68.70
69598;SHT31;70000;51.176;-115.568;2023-12-14T09:31:10;-5.04;68.77
69598;SHT31;70000;51.176;-115.568;2023-12-14T09:33:39;-5.04;68.86
69598;SHT31;70000;51.176;-115.568;2023-12-14T09:36:07;-5.02;68.90
69598;SHT31;70000;51.176;-115.568;2023-12-14T09:38:36;-5.01;68.77
69598;SHT31;70000;51.176;-115.568;2023-12-14T09:41:06;-4.99;68.64
69598;SHT31;70000;51.176;-115.568;2023-12-14T09:43:35;-4.99;68.65
69598;SHT31;70000;51.176;-115.568;2023-12-14T09:46:04;-5.00;68.80
69598;SHT31;70000;51.176;-115.568;2023-12-14T09:48:33;-5.03;69.00
69598;SHT31;70000;51.176;-115.568;2023-12-14T09:51:02;-5.04;69.18
69598;SHT31;70000;51.176;-115.568;2023-12-14T09:53:31;-5.05;69.30
69598;SHT31;70000;51.176;-115.568;2023-12-14T09:55:59;-5.05;69.28
69598;SHT31;70000;51.176;-115.568;2023-12-14T09:58:31;-5.06;69.41
69598;SHT31;70000;51.176;-115.568;2023-12-14T10:01:02;-5.05;69.61
69598;SHT31;70000;51.176;-115.568;2023-12-14T10:04:15;-4.99;69.59
69598;SHT31;70000;51.176;-115.568;2023-12-14T10:06:47;-4.97;69.53
69598;SHT31;70000;51.176;-115.568;2023-12-14T10:09:22;-4.97;69.50
69598;SHT31;70000;51.176;-115.568;2023-12-14T10:11:51;-4.97;69.44
69598;SHT31;70000;51.176;-115.568;2023-12-14T10:14:35;-4.92;69.60
69598;SHT31;70000;51.176;-115.568;2023-12-14T10:17:18;-4.90;69.51
69598;SHT31;70000;51.176;-115.568;2023-12-14T10:19:49;-4.88;69.38
69598;SHT31;70000;51.176;-115.568;2023-12-14T10:22:17;-4.86;69.40
69598;SHT31;70000;51.176;-115.568;2023-12-14T10:24:48;-4.83;69.47
69598;SHT31;70000;51.176;-115.568;2023-12-14T10:27:17;-4.82;69.34
69598;SHT31;70000;51.176;-115.568;2023-12-14T10:33:03;-4.74;69.43
69598;SHT31;70000;51.176;-115.568;2023-12-14T10:35:32;-4.72;69.40
69598;SHT31;70000;51.176;-115.568;2023-12-14T10:38:02;-4.71;69.47
69598;SHT31;70000;51.176;-115.568;2023-12-14T10:40:33;-4.73;69.53
69598;SHT31;70000;51.176;-115.568;2023-12-14T10:43:08;-4.75;69.59
69598;SHT31;70000;51.176;-115.568;2023-12-14T10:45:42;-4.75;69.59
69598;SHT31;70000;51.176;-115.568;2023-12-14T10:48:15;-4.75;69.47
69598;SHT31;70000;51.176;-115.568;2023-12-14T10:50:48;-4.72;69.41
69598;SHT31;70000;51.176;-115.568;2023-12-14T10:53:21;-4.69;69.30
69598;SHT31;70000;51.176;-115.568;2023-12-14T10:55:50;-4.67;69.36
69598;SHT31;70000;51.176;-115.568;2023-12-14T10:58:20;-4.69;69.44
69598;SHT31;70000;51.176;-115.568;2023-12-14T11:01:01;-4.70;69.53
69598;SHT31;70000;51.176;-115.568;2023-12-14T11:03:33;-4.72;69.64
69598;SHT31;70000;51.176;-115.568;2023-12-14T11:06:15;-4.71;69.67
69598;SHT31;70000;51.176;-115.568;2023-12-14T11:08:53;-4.68;69.68
69598;SHT31;70000;51.176;-115.568;2023-12-14T11:11:54;-4.63;69.55
69598;SHT31;70000;51.176;-115.568;2023-12-14T11:14:27;-4.55;69.26
69598;SHT31;70000;51.176;-115.568;2023-12-14T11:16:56;-4.52;69.02
69598;SHT31;70000;51.176;-115.568;2023-12-14T11:19:34;-4.49;69.07
69598;SHT31;70000;51.176;-115.568;2023-12-14T11:24:36;-4.45;69.08
69598;SHT31;70000;51.176;-115.568;2023-12-14T11:27:11;-4.43;69.20
69598;SHT31;70000;51.176;-115.568;2023-12-14T11:29:40;-4.41;69.20
69598;SHT31;70000;51.176;-115.568;2023-12-14T11:32:10;-4.41;69.24
69598;SHT31;70000;51.176;-115.568;2023-12-14T11:34:39;-4.38;69.28
69598;SHT31;70000;51.176;-115.568;2023-12-14T11:37:08;-4.36;69.40
69598;SHT31;70000;51.176;-115.568;2023-12-14T11:39:37;-4.30;69.45
69598;SHT31;70000;51.176;-115.568;2023-12-14T11:42:06;-4.26;69.41
69598;SHT31;70000;51.176;-115.568;2023-12-14T11:44:38;-4.24;69.48
69598;SHT31;70000;51.176;-115.568;2023-12-14T11:47:10;-4.25;69.27
69598;SHT31;70000;51.176;-115.568;2023-12-14T11:49:39;-4.27;69.40
69598;SHT31;70000;51.176;-115.568;2023-12-14T11:52:08;-4.25;69.44
69598;SHT31;70000;51.176;-115.568;2023-12-14T11:54:38;-4.22;69.40
69598;SHT31;70000;51.176;-115.568;2023-12-14T11:57:07;-4.23;69.12
69598;SHT31;70000;51.176;-115.568;2023-12-14T11:59:37;-4.26;69.10
69598;SHT31;70000;51.176;-115.568;2023-12-14T12:02:06;-4.27;69.13
69598;SHT31;70000;51.176;-115.568;2023-12-14T12:04:36;-4.25;69.27
69598;SHT31;70000;51.176;-115.568;2023-12-14T12:07:05;-4.23;69.10
69598;SHT31;70000;51.176;-115.568;2023-12-14T12:09:37;-4.23;69.09
69598;SHT31;70000;51.176;-115.568;2023-12-14T12:12:11;-4.18;69.21
69598;SHT31;70000;51.176;-115.568;2023-12-14T12:14:41;-4.15;69.20
69598;SHT31;70000;51.176;-115.568;2023-12-14T12:17:10;-4.14;69.32
69598;SHT31;70000;51.176;-115.568;2023-12-14T12:19:39;-4.11;69.43
69598;SHT31;70000;51.176;-115.568;2023-12-14T12:22:10;-4.07;69.54
69598;SHT31;70000;51.176;-115.568;2023-12-14T12:24:39;-4.03;69.60
69598;SHT31;70000;51.176;-115.568;2023-12-14T12:27:14;-4.00;69.45
69598;SHT31;70000;51.176;-115.568;2023-12-14T12:29:43;-4.00;69.37
69598;SHT31;70000;51.176;-115.568;2023-12-14T12:32:12;-3.98;69.33
69598;SHT31;70000;51.176;-115.568;2023-12-14T12:34:41;-4.02;69.42
69598;SHT31;70000;51.176;-115.568;2023-12-14T12:37:10;-3.96;69.68
69598;SHT31;70000;51.176;-115.568;2023-12-14T12:39:39;-3.90;69.73
69598;SHT31;70000;51.176;-115.568;2023-12-14T12:42:08;-3.88;69.60
69598;SHT31;70000;51.176;-115.568;2023-12-14T12:44:38;-3.89;69.68
69598;SHT31;70000;51.176;-115.568;2023-12-14T12:47:07;-3.90;69.57
69598;SHT31;70000;51.176;-115.568;2023-12-14T12:49:37;-3.93;69.50
69598;SHT31;70000;51.176;-115.568;2023-12-14T12:52:06;-3.91;69.60
69598;SHT31;70000;51.176;-115.568;2023-12-14T12:54:35;-3.89;69.66
69598;SHT31;70000;51.176;-115.568;2023-12-14T12:57:04;-3.88;69.67
69598;SHT31;70000;51.176;-115.568;2023-12-14T12:59:34;-3.86;69.73
69598;SHT31;70000;51.176;-115.568;2023-12-14T13:02:03;-3.83;69.79
69598;SHT31;70000;51.176;-115.568;2023-12-14T13:04:33;-3.83;69.65
69598;SHT31;70000;51.176;-115.568;2023-12-14T13:07:02;-3.82;69.74
69598;SHT31;70000;51.176;-115.568;2023-12-14T13:09:31;-3.82;69.74
69598;SHT31;70000;51.176;-115.568;2023-12-14T13:12:01;-3.82;69.68
69598;SHT31;70000;51.176;-115.568;2023-12-14T13:14:30;-3.86;69.49
69598;SHT31;70000;51.176;-115.568;2023-12-14T13:17:02;-3.92;69.55
69598;SHT31;70000;51.176;-115.568;2023-12-14T13:19:31;-3.98;69.68
69598;SHT31;70000;51.176;-115.568;2023-12-14T13:22:00;-3.97;69.74
69598;SHT31;70000;51.176;-115.568;2023-12-14T13:24:30;-3.96;69.68
69598;SHT31;70000;51.176;-115.568;2023-12-14T13:26:58;-3.99;69.69
69598;SHT31;70000;51.176;-115.568;2023-12-14T13:29:28;-4.01;69.81
69598;SHT31;70000;51.176;-115.568;2023-12-14T13:32:00;-3.97;69.89
69598;SHT31;70000;51.176;-115.568;2023-12-14T13:34:30;-3.97;69.83
69598;SHT31;70000;51.176;-115.568;2023-12-14T13:37:00;-3.96;69.81
69598;SHT31;70000;51.176;-115.568;2023-12-14T13:39:31;-3.93;69.83
69598;SHT31;70000;51.176;-115.568;2023-12-14T13:42:02;-3.93;69.82
69598;SHT31;70000;51.176;-115.568;2023-12-14T13:44:34;-3.91;69.93
69598;SHT31;70000;51.176;-115.568;2023-12-14T13:47:03;-3.89;69.93
69598;SHT31;70000;51.176;-115.568;2023-12-14T13:49:33;-3.92;69.89
69598;SHT31;70000;51.176;-115.568;2023-12-14T13:52:02;-3.90;69.95
69598;SHT31;70000;51.176;-115.568;2023-12-14T13:54:32;-3.95;69.76
69598;SHT31;70000;51.176;-115.568;2023-12-14T13:57:02;-3.97;69.94
69598;SHT31;70000;51.176;-115.568;2023-12-14T13:59:31;-3.96;70.03
69598;SHT31;70000;51.176;-115.568;2023-12-14T14:02:00;-3.97;70.04
69598;SHT31;70000;51.176;-115.568;2023-12-14T14:04:32;-3.98;70.08
69598;SHT31;70000;51.176;-115.568;2023-12-14T14:07:05;-3.98;69.95
69598;SHT31;70000;51.176;-115.568;2023-12-14T14:09:34;-3.99;69.96
69598;SHT31;70000;51.176;-115.568;2023-12-14T14:12:11;-3.99;70.09
69598;SHT31;70000;51.176;-115.568;2023-12-14T14:14:40;-4.01;70.02
69598;SHT31;70000;51.176;-115.568;2023-12-14T14:17:09;-4.02;70.09
69598;SHT31;70000;51.176;-115.568;2023-12-14T14:19:39;-4.05;69.90
69598;SHT31;70000;51.176;-115.568;2023-12-14T14:22:08;-4.07;69.91
69598;SHT31;70000;51.176;-115.568;2023-12-14T14:24:37;-4.09;69.84
69598;SHT31;70000;51.176;-115.568;2023-12-14T14:27:06;-4.08;70.00
69598;SHT31;70000;51.176;-115.568;2023-12-14T14:29:35;-4.03;69.99
69598;SHT31;70000;51.176;-115.568;2023-12-14T14:32:04;-4.02;69.98
69598;SHT31;70000;51.176;-115.568;2023-12-14T14:34:33;-3.99;70.07
69598;SHT31;70000;51.176;-115.568;2023-12-14T14:37:03;-3.95;70.20
69598;SHT31;70000;51.176;-115.568;2023-12-14T14:39:33;-3.93;70.21
69598;SHT31;70000;51.176;-115.568;2023-12-14T14:42:05;-3.90;69.88
69598;SHT31;70000;51.176;-115.568;2023-12-14T14:44:34;-3.94;69.68
69598;SHT31;70000;51.176;-115.568;2023-12-14T14:47:03;-3.97;69.68
69598;SHT31;70000;51.176;-115.568;2023-12-14T14:49:32;-3.96;69.80
69598;SHT31;70000;51.176;-115.568;2023-12-14T14:52:02;-4.00;69.82
69598;SHT31;70000;51.176;-115.568;2023-12-14T14:54:31;-4.01;69.74
69598;SHT31;70000;51.176;-115.568;2023-12-14T14:57:00;-4.01;69.89
69598;SHT31;70000;51.176;-115.568;2023-12-14T14:59:33;-4.03;69.80
69598;SHT31;70000;51.176;-115.568;2023-12-14T15:02:05;-4.11;69.66
69598;SHT31;70000;51.176;-115.568;2023-12-14T15:04:34;-4.20;69.86
69598;SHT31;70000;51.176;-115.568;2023-12-14T15:07:04;-4.21;69.88
69598;SHT31;70000;51.176;-115.568;2023-12-14T15:09:33;-4.22;69.90
69598;SHT31;70000;51.176;-115.568;2023-12-14T15:12:02;-4.18;70.15
69598;SHT31;70000;51.176;-115.568;2023-12-14T15:18:37;-4.07;70.20
69598;SHT31;70000;51.176;-115.568;2023-12-14T15:21:10;-4.05;70.09
69598;SHT31;70000;51.176;-115.568;2023-12-14T15:23:42;-4.03;69.96
69598;SHT31;70000;51.176;-115.568;2023-12-14T15:26:16;-4.01;69.88
69598;SHT31;70000;51.176;-115.568;2023-12-14T15:28:47;-4.02;69.74
69598;SHT31;70000;51.176;-115.568;2023-12-14T15:31:16;-4.01;69.80
69598;SHT31;70000;51.176;-115.568;2023-12-14T15:33:45;-3.99;69.90
69598;SHT31;70000;51.176;-115.568;2023-12-14T15:36:15;-3.98;69.74